sensor_id;sensor_type;location;lat;lon;timestamp;P1;durP1;ratioP1;P2;durP2;ratioP2
6452;SDS011;3259;51.080;13.712;2023-03-01T00:54:13;1.48;;;0.73;;
6452;SDS011;3259;51.080;13.712;2023-03-01T00:57:31;0.45;;;0.45;;
6452;SDS011;3259;51.080;13.712;2023-03-01T01:00:36;2.75;;;0.85;;
6452;SDS011;3259;51.080;13.712;2023-03-01T01:03:54;0.30;;;0.30;;
6452;SDS011;3259;51.080;13.712;2023-03-01T01:07:09;0.93;;;0.63;;
6452;SDS011;3259;51.080;13.712;2023-03-01T01:53:08;1.48;;;0.57;;
6452;SDS011;3259;51.080;13.712;2023-03-01T01:56:13;0.52;;;0.50;;
6452;SDS011;3259;51.080;13.712;2023-03-01T01:59:37;0.47;;;0.47;;
6452;SDS011;3259;51.080;13.712;2023-03-01T02:02:49;0.32;;;0.32;;
6452;SDS011;3259;51.080;13.712;2023-03-01T02:06:12;0.40;;;0.40;;
6452;SDS011;3259;51.080;13.712;2023-03-01T02:09:38;0.38;;;0.38;;
6452;SDS011;3259;51.080;13.712;2023-03-01T02:13:01;2.67;;;0.63;;
6452;SDS011;3259;51.080;13.712;2023-03-01T02:16:26;0.47;;;0.47;;
6452;SDS011;3259;51.080;13.712;2023-03-01T02:20:04;0.43;;;0.40;;
6452;SDS011;3259;51.080;13.712;2023-03-01T02:22:58;2.90;;;0.47;;
6452;SDS011;3259;51.080;13.712;2023-03-01T02:25:51;0.30;;;0.30;;
6452;SDS011;3259;51.080;13.712;2023-03-01T02:28:43;0.20;;;0.20;;
6452;SDS011;3259;51.080;13.712;2023-03-01T02:31:32;0.40;;;0.40;;
6452;SDS011;3259;51.080;13.712;2023-03-01T02:34:31;0.52;;;0.30;;
6452;SDS011;3259;51.080;13.712;2023-03-01T02:37:20;2.40;;;0.65;;
6452;SDS011;3259;51.080;13.712;2023-03-01T02:40:13;0.30;;;0.30;;
6452;SDS011;3259;51.080;13.712;2023-03-01T02:43:36;0.35;;;0.35;;
6452;SDS011;3259;51.080;13.712;2023-03-01T02:47:02;0.88;;;0.70;;
6452;SDS011;3259;51.080;13.712;2023-03-01T02:54:20;1.00;;;0.40;;
6452;SDS011;3259;51.080;13.712;2023-03-01T02:58:10;1.98;;;0.50;;
6452;SDS011;3259;51.080;13.712;2023-03-01T03:01:39;1.02;;;0.80;;
6452;SDS011;3259;51.080;13.712;2023-03-01T03:59:50;0.45;;;0.30;;
6452;SDS011;3259;51.080;13.712;2023-03-01T04:03:11;0.30;;;0.30;;
6452;SDS011;3259;51.080;13.712;2023-03-01T04:10:28;1.90;;;0.40;;
6452;SDS011;3259;51.080;13.712;2023-03-01T04:13:46;0.30;;;0.22;;
6452;SDS011;3259;51.080;13.712;2023-03-01T04:33:42;2.08;;;0.50;;
6452;SDS011;3259;51.080;13.712;2023-03-01T05:31:51;5.63;;;3.08;;
6452;SDS011;3259;51.080;13.712;2023-03-01T05:34:42;6.43;;;3.38;;
6452;SDS011;3259;51.080;13.712;2023-03-01T05:37:51;5.18;;;3.67;;
6452;SDS011;3259;51.080;13.712;2023-03-01T05:46:07;4.38;;;3.75;;
6452;SDS011;3259;51.080;13.712;2023-03-01T05:54:01;4.00;;;3.67;;
6452;SDS011;3259;51.080;13.712;2023-03-01T05:57:15;5.30;;;3.47;;
6452;SDS011;3259;51.080;13.712;2023-03-01T06:00:56;3.45;;;3.13;;
6452;SDS011;3259;51.080;13.712;2023-03-01T06:04:04;3.15;;;2.85;;
6452;SDS011;3259;51.080;13.712;2023-03-01T06:06:54;5.13;;;3.05;;
6452;SDS011;3259;51.080;13.712;2023-03-01T06:10:18;5.50;;;3.10;;
6452;SDS011;3259;51.080;13.712;2023-03-01T06:13:18;3.17;;;2.88;;
6452;SDS011;3259;51.080;13.712;2023-03-01T06:16:24;5.35;;;2.90;;
6452;SDS011;3259;51.080;13.712;2023-03-01T06:19:19;2.88;;;2.55;;
6452;SDS011;3259;51.080;13.712;2023-03-01T06:22:22;5.55;;;2.58;;
6452;SDS011;3259;51.080;13.712;2023-03-01T06:29:13;2.75;;;2.55;;
6452;SDS011;3259;51.080;13.712;2023-03-01T06:32:07;2.47;;;2.28;;
6452;SDS011;3259;51.080;13.712;2023-03-01T06:34:57;1.98;;;1.83;;
6452;SDS011;3259;51.080;13.712;2023-03-01T06:37:47;4.68;;;2.50;;
6452;SDS011;3259;51.080;13.712;2023-03-01T06:40:37;6.40;;;2.35;;
6452;SDS011;3259;51.080;13.712;2023-03-01T06:43:31;2.78;;;2.03;;
6452;SDS011;3259;51.080;13.712;2023-03-01T06:50:08;3.63;;;1.60;;
6452;SDS011;3259;51.080;13.712;2023-03-01T06:53:26;3.25;;;1.80;;
6452;SDS011;3259;51.080;13.712;2023-03-01T07:02:01;1.60;;;1.50;;
6452;SDS011;3259;51.080;13.712;2023-03-01T07:12:38;1.70;;;1.60;;
6452;SDS011;3259;51.080;13.712;2023-03-01T07:19:58;1.75;;;1.63;;
6452;SDS011;3259;51.080;13.712;2023-03-01T09:03:01;2.55;;;1.55;;
6452;SDS011;3259;51.080;13.712;2023-03-01T09:05:51;5.40;;;1.90;;
6452;SDS011;3259;51.080;13.712;2023-03-01T09:08:40;2.92;;;2.30;;
6452;SDS011;3259;51.080;13.712;2023-03-01T09:11:31;3.97;;;1.63;;
6452;SDS011;3259;51.080;13.712;2023-03-01T09:14:20;2.17;;;1.52;;
6452;SDS011;3259;51.080;13.712;2023-03-01T09:17:11;2.53;;;1.70;;
6452;SDS011;3259;51.080;13.712;2023-03-01T09:20:00;2.80;;;1.70;;
6452;SDS011;3259;51.080;13.712;2023-03-01T09:22:52;2.55;;;1.10;;
6452;SDS011;3259;51.080;13.712;2023-03-01T09:25:41;2.55;;;1.65;;
6452;SDS011;3259;51.080;13.712;2023-03-01T09:28:30;3.60;;;1.45;;
6452;SDS011;3259;51.080;13.712;2023-03-01T09:31:19;4.38;;;1.58;;
6452;SDS011;3259;51.080;13.712;2023-03-01T09:34:11;2.67;;;1.88;;
6452;SDS011;3259;51.080;13.712;2023-03-01T09:37:01;4.20;;;1.33;;
6452;SDS011;3259;51.080;13.712;2023-03-01T09:39:51;1.73;;;1.40;;
6452;SDS011;3259;51.080;13.712;2023-03-01T09:42:44;1.40;;;1.30;;
6452;SDS011;3259;51.080;13.712;2023-03-01T09:45:35;2.80;;;1.15;;
6452;SDS011;3259;51.080;13.712;2023-03-01T09:48:27;0.98;;;0.98;;
6452;SDS011;3259;51.080;13.712;2023-03-01T09:51:21;2.45;;;1.10;;
6452;SDS011;3259;51.080;13.712;2023-03-01T09:54:13;1.85;;;1.30;;
6452;SDS011;3259;51.080;13.712;2023-03-01T09:57:05;1.48;;;1.25;;
6452;SDS011;3259;51.080;13.712;2023-03-01T10:00:00;4.15;;;1.35;;
6452;SDS011;3259;51.080;13.712;2023-03-01T10:02:57;1.40;;;1.30;;
6452;SDS011;3259;51.080;13.712;2023-03-01T10:05:52;1.50;;;1.20;;
6452;SDS011;3259;51.080;13.712;2023-03-01T10:08:48;1.13;;;1.00;;
6452;SDS011;3259;51.080;13.712;2023-03-01T10:11:42;2.78;;;1.08;;
6452;SDS011;3259;51.080;13.712;2023-03-01T10:14:35;2.67;;;0.90;;
6452;SDS011;3259;51.080;13.712;2023-03-01T10:17:30;1.10;;;1.00;;
6452;SDS011;3259;51.080;13.712;2023-03-01T10:20:23;0.85;;;0.85;;
6452;SDS011;3259;51.080;13.712;2023-03-01T10:23:13;3.35;;;1.20;;
6452;SDS011;3259;51.080;13.712;2023-03-01T10:26:07;1.60;;;1.17;;
6452;SDS011;3259;51.080;13.712;2023-03-01T10:29:06;2.80;;;1.02;;
6452;SDS011;3259;51.080;13.712;2023-03-01T10:31:57;1.52;;;1.40;;
6452;SDS011;3259;51.080;13.712;2023-03-01T10:34:50;4.45;;;0.75;;
6452;SDS011;3259;51.080;13.712;2023-03-01T10:37:46;3.80;;;1.20;;
6452;SDS011;3259;51.080;13.712;2023-03-01T10:40:53;1.60;;;1.00;;
6452;SDS011;3259;51.080;13.712;2023-03-01T10:43:46;1.63;;;0.82;;
6452;SDS011;3259;51.080;13.712;2023-03-01T10:46:37;1.05;;;0.85;;
6452;SDS011;3259;51.080;13.712;2023-03-01T10:49:26;1.33;;;1.13;;
6452;SDS011;3259;51.080;13.712;2023-03-01T10:52:20;0.88;;;0.80;;
6452;SDS011;3259;51.080;13.712;2023-03-01T10:55:22;0.90;;;0.90;;
6452;SDS011;3259;51.080;13.712;2023-03-01T10:58:17;1.00;;;0.63;;
6452;SDS011;3259;51.080;13.712;2023-03-01T11:04:09;1.77;;;1.23;;
6452;SDS011;3259;51.080;13.712;2023-03-01T11:07:01;1.10;;;1.00;;
6452;SDS011;3259;51.080;13.712;2023-03-01T11:09:51;0.60;;;0.60;;
6452;SDS011;3259;51.080;13.712;2023-03-01T11:12:40;0.60;;;0.55;;
6452;SDS011;3259;51.080;13.712;2023-03-01T11:15:28;0.68;;;0.63;;
6452;SDS011;3259;51.080;13.712;2023-03-01T11:18:18;1.92;;;0.90;;
6452;SDS011;3259;51.080;13.712;2023-03-01T11:21:21;1.17;;;0.82;;
6452;SDS011;3259;51.080;13.712;2023-03-01T11:24:09;3.92;;;0.90;;
6452;SDS011;3259;51.080;13.712;2023-03-01T11:27:03;0.73;;;0.70;;
6452;SDS011;3259;51.080;13.712;2023-03-01T11:29:58;0.93;;;0.60;;
6452;SDS011;3259;51.080;13.712;2023-03-01T11:32:53;1.60;;;0.63;;
6452;SDS011;3259;51.080;13.712;2023-03-01T11:35:53;0.50;;;0.50;;
6452;SDS011;3259;51.080;13.712;2023-03-01T11:38:45;1.05;;;0.60;;
6452;SDS011;3259;51.080;13.712;2023-03-01T11:41:35;1.00;;;0.82;;
6452;SDS011;3259;51.080;13.712;2023-03-01T11:44:25;1.23;;;0.70;;
6452;SDS011;3259;51.080;13.712;2023-03-01T11:47:20;0.60;;;0.60;;
6452;SDS011;3259;51.080;13.712;2023-03-01T11:50:19;1.05;;;0.60;;
6452;SDS011;3259;51.080;13.712;2023-03-01T11:53:25;0.60;;;0.60;;
6452;SDS011;3259;51.080;13.712;2023-03-01T11:56:24;0.70;;;0.60;;
6452;SDS011;3259;51.080;13.712;2023-03-01T11:59:38;0.98;;;0.50;;
6452;SDS011;3259;51.080;13.712;2023-03-01T12:02:51;1.20;;;0.88;;
6452;SDS011;3259;51.080;13.712;2023-03-01T12:06:01;1.23;;;0.40;;
6452;SDS011;3259;51.080;13.712;2023-03-01T12:09:02;0.60;;;0.60;;
6452;SDS011;3259;51.080;13.712;2023-03-01T12:12:06;1.00;;;0.88;;
6452;SDS011;3259;51.080;13.712;2023-03-01T12:18:34;1.08;;;0.60;;
6452;SDS011;3259;51.080;13.712;2023-03-01T12:21:34;0.50;;;0.50;;
6452;SDS011;3259;51.080;13.712;2023-03-01T12:24:39;0.57;;;0.38;;
6452;SDS011;3259;51.080;13.712;2023-03-01T12:27:55;0.63;;;0.47;;
6452;SDS011;3259;51.080;13.712;2023-03-01T12:34:20;0.40;;;0.40;;
6452;SDS011;3259;51.080;13.712;2023-03-01T12:37:20;0.50;;;0.50;;
6452;SDS011;3259;51.080;13.712;2023-03-01T12:43:45;0.20;;;0.20;;
6452;SDS011;3259;51.080;13.712;2023-03-01T12:46:41;1.70;;;0.75;;
6452;SDS011;3259;51.080;13.712;2023-03-01T12:49:42;0.50;;;0.50;;
6452;SDS011;3259;51.080;13.712;2023-03-01T12:52:36;0.40;;;0.40;;
6452;SDS011;3259;51.080;13.712;2023-03-01T12:55:28;0.77;;;0.50;;
6452;SDS011;3259;51.080;13.712;2023-03-01T12:58:20;0.20;;;0.20;;
6452;SDS011;3259;51.080;13.712;2023-03-01T13:01:41;1.15;;;0.68;;
6452;SDS011;3259;51.080;13.712;2023-03-01T13:04:40;0.35;;;0.35;;
6452;SDS011;3259;51.080;13.712;2023-03-01T13:07:35;0.57;;;0.45;;
6452;SDS011;3259;51.080;13.712;2023-03-01T13:10:26;0.60;;;0.60;;
6452;SDS011;3259;51.080;13.712;2023-03-01T13:13:20;0.80;;;0.70;;
6452;SDS011;3259;51.080;13.712;2023-03-01T13:16:20;0.52;;;0.52;;
6452;SDS011;3259;51.080;13.712;2023-03-01T13:19:14;0.35;;;0.30;;
6452;SDS011;3259;51.080;13.712;2023-03-01T13:25:16;0.43;;;0.43;;
6452;SDS011;3259;51.080;13.712;2023-03-01T13:34:54;0.30;;;0.30;;
6452;SDS011;3259;51.080;13.712;2023-03-01T13:37:44;2.03;;;0.20;;
6452;SDS011;3259;51.080;13.712;2023-03-01T13:43:47;0.68;;;0.30;;
6452;SDS011;3259;51.080;13.712;2023-03-01T13:46:36;0.40;;;0.40;;
6452;SDS011;3259;51.080;13.712;2023-03-01T13:49:26;0.73;;;0.55;;
6452;SDS011;3259;51.080;13.712;2023-03-01T13:55:40;0.40;;;0.38;;
6452;SDS011;3259;51.080;13.712;2023-03-01T13:58:32;0.45;;;0.38;;
6452;SDS011;3259;51.080;13.712;2023-03-01T14:01:27;1.05;;;0.65;;
6452;SDS011;3259;51.080;13.712;2023-03-01T14:04:19;2.25;;;0.63;;
6452;SDS011;3259;51.080;13.712;2023-03-01T14:07:10;3.60;;;1.60;;
6452;SDS011;3259;51.080;13.712;2023-03-01T14:10:03;5.00;;;2.20;;
6452;SDS011;3259;51.080;13.712;2023-03-01T14:12:54;9.07;;;2.55;;
6452;SDS011;3259;51.080;13.712;2023-03-01T14:16:08;3.83;;;2.42;;
6452;SDS011;3259;51.080;13.712;2023-03-01T14:19:07;9.02;;;3.17;;
6452;SDS011;3259;51.080;13.712;2023-03-01T14:22:20;2.92;;;2.72;;
6452;SDS011;3259;51.080;13.712;2023-03-01T14:25:20;5.85;;;3.42;;
6452;SDS011;3259;51.080;13.712;2023-03-01T14:28:14;3.83;;;3.40;;
6452;SDS011;3259;51.080;13.712;2023-03-01T14:34:32;7.43;;;3.63;;
6452;SDS011;3259;51.080;13.712;2023-03-01T14:37:23;5.90;;;3.75;;
6452;SDS011;3259;51.080;13.712;2023-03-01T14:43:38;43.22;;;6.97;;
6452;SDS011;3259;51.080;13.712;2023-03-01T14:46:30;35.20;;;5.68;;
6452;SDS011;3259;51.080;13.712;2023-03-01T14:49:21;49.65;;;7.50;;
6452;SDS011;3259;51.080;13.712;2023-03-01T14:52:18;44.92;;;6.78;;
6452;SDS011;3259;51.080;13.712;2023-03-01T14:55:18;27.13;;;5.57;;
6452;SDS011;3259;51.080;13.712;2023-03-01T15:02:11;162.13;;;16.15;;
6452;SDS011;3259;51.080;13.712;2023-03-01T15:05:04;26.23;;;8.05;;
6452;SDS011;3259;51.080;13.712;2023-03-01T15:07:55;37.22;;;7.47;;
6452;SDS011;3259;51.080;13.712;2023-03-01T15:10:55;24.77;;;6.40;;
6452;SDS011;3259;51.080;13.712;2023-03-01T15:13:45;24.95;;;5.88;;
6452;SDS011;3259;51.080;13.712;2023-03-01T15:16:34;17.75;;;6.10;;
6452;SDS011;3259;51.080;13.712;2023-03-01T15:19:31;14.50;;;5.57;;
6452;SDS011;3259;51.080;13.712;2023-03-01T15:22:20;14.68;;;5.05;;
6452;SDS011;3259;51.080;13.712;2023-03-01T15:25:13;13.10;;;4.57;;
6452;SDS011;3259;51.080;13.712;2023-03-01T15:28:03;11.65;;;4.75;;
6452;SDS011;3259;51.080;13.712;2023-03-01T15:30:52;16.85;;;5.85;;
6452;SDS011;3259;51.080;13.712;2023-03-01T15:33:44;9.30;;;4.20;;
6452;SDS011;3259;51.080;13.712;2023-03-01T15:36:38;17.55;;;5.25;;
6452;SDS011;3259;51.080;13.712;2023-03-01T15:39:33;10.75;;;4.07;;
6452;SDS011;3259;51.080;13.712;2023-03-01T15:42:36;9.77;;;4.13;;
6452;SDS011;3259;51.080;13.712;2023-03-01T15:45:26;10.68;;;4.20;;
6452;SDS011;3259;51.080;13.712;2023-03-01T15:48:17;7.07;;;4.10;;
6452;SDS011;3259;51.080;13.712;2023-03-01T15:51:09;7.57;;;4.38;;
6452;SDS011;3259;51.080;13.712;2023-03-01T15:54:02;11.55;;;4.43;;
6452;SDS011;3259;51.080;13.712;2023-03-01T15:56:52;7.35;;;4.40;;
6452;SDS011;3259;51.080;13.712;2023-03-01T15:59:41;14.32;;;4.13;;
6452;SDS011;3259;51.080;13.712;2023-03-01T16:02:30;9.15;;;4.03;;
6452;SDS011;3259;51.080;13.712;2023-03-01T16:05:20;8.95;;;3.83;;
6452;SDS011;3259;51.080;13.712;2023-03-01T16:08:10;6.85;;;3.60;;
6452;SDS011;3259;51.080;13.712;2023-03-01T16:11:00;8.15;;;3.95;;
6452;SDS011;3259;51.080;13.712;2023-03-01T16:13:52;8.07;;;4.10;;
6452;SDS011;3259;51.080;13.712;2023-03-01T16:16:41;13.88;;;5.00;;
6452;SDS011;3259;51.080;13.712;2023-03-01T16:19:30;11.93;;;5.47;;
6452;SDS011;3259;51.080;13.712;2023-03-01T16:22:19;11.38;;;5.55;;
6452;SDS011;3259;51.080;13.712;2023-03-01T16:25:12;10.50;;;5.30;;
6452;SDS011;3259;51.080;13.712;2023-03-01T16:28:05;14.43;;;5.50;;
6452;SDS011;3259;51.080;13.712;2023-03-01T16:30:56;10.35;;;5.60;;
6452;SDS011;3259;51.080;13.712;2023-03-01T16:33:45;14.65;;;6.30;;
6452;SDS011;3259;51.080;13.712;2023-03-01T16:36:36;9.27;;;5.60;;
6452;SDS011;3259;51.080;13.712;2023-03-01T16:39:25;6.47;;;5.25;;
6452;SDS011;3259;51.080;13.712;2023-03-01T16:42:13;8.57;;;5.82;;
6452;SDS011;3259;51.080;13.712;2023-03-01T16:45:04;8.93;;;5.85;;
6452;SDS011;3259;51.080;13.712;2023-03-01T16:48:09;10.88;;;5.88;;
6452;SDS011;3259;51.080;13.712;2023-03-01T16:50:58;11.43;;;6.45;;
6452;SDS011;3259;51.080;13.712;2023-03-01T16:53:48;12.75;;;6.75;;
6452;SDS011;3259;51.080;13.712;2023-03-01T16:56:37;8.35;;;6.18;;
6452;SDS011;3259;51.080;13.712;2023-03-01T16:59:26;9.73;;;6.63;;
6452;SDS011;3259;51.080;13.712;2023-03-01T17:02:16;9.05;;;6.00;;
6452;SDS011;3259;51.080;13.712;2023-03-01T17:05:06;9.52;;;6.07;;
6452;SDS011;3259;51.080;13.712;2023-03-01T17:07:56;11.90;;;6.22;;
6452;SDS011;3259;51.080;13.712;2023-03-01T17:10:46;10.05;;;6.20;;
6452;SDS011;3259;51.080;13.712;2023-03-01T17:13:35;11.85;;;5.97;;
6452;SDS011;3259;51.080;13.712;2023-03-01T17:16:24;12.68;;;5.78;;
6452;SDS011;3259;51.080;13.712;2023-03-01T17:19:14;10.65;;;6.05;;
6452;SDS011;3259;51.080;13.712;2023-03-01T17:22:05;7.30;;;5.97;;
6452;SDS011;3259;51.080;13.712;2023-03-01T17:24:53;9.93;;;6.47;;
6452;SDS011;3259;51.080;13.712;2023-03-01T17:27:45;9.52;;;5.38;;
6452;SDS011;3259;51.080;13.712;2023-03-01T17:30:34;11.60;;;5.15;;
6452;SDS011;3259;51.080;13.712;2023-03-01T17:33:23;8.60;;;4.95;;
6452;SDS011;3259;51.080;13.712;2023-03-01T17:36:13;9.07;;;5.20;;
6452;SDS011;3259;51.080;13.712;2023-03-01T17:39:02;7.43;;;5.55;;
6452;SDS011;3259;51.080;13.712;2023-03-01T17:41:51;11.80;;;5.50;;
6452;SDS011;3259;51.080;13.712;2023-03-01T17:44:39;10.90;;;5.50;;
6452;SDS011;3259;51.080;13.712;2023-03-01T17:47:29;8.88;;;5.85;;
6452;SDS011;3259;51.080;13.712;2023-03-01T17:50:18;7.40;;;5.78;;
6452;SDS011;3259;51.080;13.712;2023-03-01T17:53:08;8.30;;;5.47;;
6452;SDS011;3259;51.080;13.712;2023-03-01T17:56:00;5.22;;;4.72;;
6452;SDS011;3259;51.080;13.712;2023-03-01T17:58:50;9.25;;;5.13;;
6452;SDS011;3259;51.080;13.712;2023-03-01T18:01:39;8.85;;;6.07;;
6452;SDS011;3259;51.080;13.712;2023-03-01T18:04:29;10.45;;;5.68;;
6452;SDS011;3259;51.080;13.712;2023-03-01T18:07:18;7.80;;;5.03;;
6452;SDS011;3259;51.080;13.712;2023-03-01T18:10:09;8.30;;;5.30;;
6452;SDS011;3259;51.080;13.712;2023-03-01T18:13:00;6.80;;;5.85;;
6452;SDS011;3259;51.080;13.712;2023-03-01T18:15:49;12.32;;;7.00;;
6452;SDS011;3259;51.080;13.712;2023-03-01T18:18:38;10.75;;;6.15;;
6452;SDS011;3259;51.080;13.712;2023-03-01T18:21:27;10.18;;;5.70;;
6452;SDS011;3259;51.080;13.712;2023-03-01T18:24:17;8.18;;;6.32;;
6452;SDS011;3259;51.080;13.712;2023-03-01T18:27:07;9.77;;;6.43;;
6452;SDS011;3259;51.080;13.712;2023-03-01T18:29:56;8.02;;;5.40;;
6452;SDS011;3259;51.080;13.712;2023-03-01T18:32:45;10.43;;;6.88;;
6452;SDS011;3259;51.080;13.712;2023-03-01T18:35:34;11.07;;;5.78;;
6452;SDS011;3259;51.080;13.712;2023-03-01T18:38:24;7.25;;;5.13;;
6452;SDS011;3259;51.080;13.712;2023-03-01T18:41:14;8.25;;;5.38;;
6452;SDS011;3259;51.080;13.712;2023-03-01T18:44:04;6.50;;;4.45;;
6452;SDS011;3259;51.080;13.712;2023-03-01T18:46:54;10.27;;;5.72;;
6452;SDS011;3259;51.080;13.712;2023-03-01T18:49:43;10.10;;;5.10;;
6452;SDS011;3259;51.080;13.712;2023-03-01T18:52:32;6.15;;;4.47;;
6452;SDS011;3259;51.080;13.712;2023-03-01T18:55:21;7.78;;;5.07;;
6452;SDS011;3259;51.080;13.712;2023-03-01T18:58:10;10.80;;;5.22;;
6452;SDS011;3259;51.080;13.712;2023-03-01T19:01:02;8.50;;;4.47;;
6452;SDS011;3259;51.080;13.712;2023-03-01T19:03:53;7.03;;;5.15;;
6452;SDS011;3259;51.080;13.712;2023-03-01T19:06:43;7.00;;;4.03;;
6452;SDS011;3259;51.080;13.712;2023-03-01T19:09:31;6.57;;;4.30;;
6452;SDS011;3259;51.080;13.712;2023-03-01T19:12:20;6.68;;;4.82;;
6452;SDS011;3259;51.080;13.712;2023-03-01T19:15:09;4.90;;;4.50;;
6452;SDS011;3259;51.080;13.712;2023-03-01T19:18:00;8.27;;;4.65;;
6452;SDS011;3259;51.080;13.712;2023-03-01T19:20:55;5.60;;;4.18;;
6452;SDS011;3259;51.080;13.712;2023-03-01T19:23:49;6.05;;;4.63;;
6452;SDS011;3259;51.080;13.712;2023-03-01T19:26:38;9.77;;;4.30;;
6452;SDS011;3259;51.080;13.712;2023-03-01T19:29:28;9.48;;;4.38;;
6452;SDS011;3259;51.080;13.712;2023-03-01T19:32:16;7.35;;;4.55;;
6452;SDS011;3259;51.080;13.712;2023-03-01T19:35:07;11.13;;;4.25;;
6452;SDS011;3259;51.080;13.712;2023-03-01T19:37:55;6.82;;;4.10;;
6452;SDS011;3259;51.080;13.712;2023-03-01T19:40:44;8.48;;;4.97;;
6452;SDS011;3259;51.080;13.712;2023-03-01T19:43:33;10.98;;;4.97;;
6452;SDS011;3259;51.080;13.712;2023-03-01T19:46:21;8.88;;;4.88;;
6452;SDS011;3259;51.080;13.712;2023-03-01T19:49:11;8.73;;;4.93;;
6452;SDS011;3259;51.080;13.712;2023-03-01T19:52:00;7.05;;;4.35;;
6452;SDS011;3259;51.080;13.712;2023-03-01T19:54:49;5.90;;;4.75;;
6452;SDS011;3259;51.080;13.712;2023-03-01T19:57:49;7.55;;;3.85;;
6452;SDS011;3259;51.080;13.712;2023-03-01T20:00:38;9.90;;;4.93;;
6452;SDS011;3259;51.080;13.712;2023-03-01T20:03:28;10.75;;;4.63;;
6452;SDS011;3259;51.080;13.712;2023-03-01T20:06:18;6.05;;;3.85;;
6452;SDS011;3259;51.080;13.712;2023-03-01T20:09:08;6.57;;;4.43;;
6452;SDS011;3259;51.080;13.712;2023-03-01T20:12:07;10.85;;;4.95;;
6452;SDS011;3259;51.080;13.712;2023-03-01T20:14:55;8.82;;;4.13;;
6452;SDS011;3259;51.080;13.712;2023-03-01T20:17:44;6.60;;;4.40;;
6452;SDS011;3259;51.080;13.712;2023-03-01T20:20:33;7.10;;;4.25;;
6452;SDS011;3259;51.080;13.712;2023-03-01T20:23:21;4.82;;;3.65;;
6452;SDS011;3259;51.080;13.712;2023-03-01T20:26:11;5.97;;;3.60;;
6452;SDS011;3259;51.080;13.712;2023-03-01T20:29:05;8.98;;;4.68;;
6452;SDS011;3259;51.080;13.712;2023-03-01T20:31:54;4.43;;;3.42;;
6452;SDS011;3259;51.080;13.712;2023-03-01T20:34:43;5.47;;;3.63;;
6452;SDS011;3259;51.080;13.712;2023-03-01T20:37:32;5.25;;;3.05;;
6452;SDS011;3259;51.080;13.712;2023-03-01T20:40:20;5.88;;;3.92;;
6452;SDS011;3259;51.080;13.712;2023-03-01T20:43:14;8.50;;;3.83;;
6452;SDS011;3259;51.080;13.712;2023-03-01T20:46:06;5.70;;;3.55;;
6452;SDS011;3259;51.080;13.712;2023-03-01T20:48:57;8.13;;;4.10;;
6452;SDS011;3259;51.080;13.712;2023-03-01T20:51:45;5.65;;;3.47;;
6452;SDS011;3259;51.080;13.712;2023-03-01T20:54:34;6.63;;;3.85;;
6452;SDS011;3259;51.080;13.712;2023-03-01T20:57:23;5.25;;;4.38;;
6452;SDS011;3259;51.080;13.712;2023-03-01T21:00:13;5.65;;;4.05;;
6452;SDS011;3259;51.080;13.712;2023-03-01T21:03:02;6.72;;;4.18;;
6452;SDS011;3259;51.080;13.712;2023-03-01T21:05:53;8.20;;;3.97;;
6452;SDS011;3259;51.080;13.712;2023-03-01T21:08:43;6.20;;;4.32;;
6452;SDS011;3259;51.080;13.712;2023-03-01T21:11:31;8.20;;;4.13;;
6452;SDS011;3259;51.080;13.712;2023-03-01T21:14:20;7.47;;;4.03;;
6452;SDS011;3259;51.080;13.712;2023-03-01T21:17:11;5.80;;;3.60;;
6452;SDS011;3259;51.080;13.712;2023-03-01T21:20:01;12.63;;;3.50;;
6452;SDS011;3259;51.080;13.712;2023-03-01T21:22:50;5.55;;;4.18;;
6452;SDS011;3259;51.080;13.712;2023-03-01T21:25:39;4.85;;;3.38;;
6452;SDS011;3259;51.080;13.712;2023-03-01T21:28:28;7.65;;;3.70;;
6452;SDS011;3259;51.080;13.712;2023-03-01T21:31:19;4.47;;;3.17;;
6452;SDS011;3259;51.080;13.712;2023-03-01T21:34:11;5.93;;;3.53;;
6452;SDS011;3259;51.080;13.712;2023-03-01T21:37:00;5.85;;;3.85;;
6452;SDS011;3259;51.080;13.712;2023-03-01T21:39:49;5.65;;;3.28;;
6452;SDS011;3259;51.080;13.712;2023-03-01T21:42:37;3.08;;;2.40;;
6452;SDS011;3259;51.080;13.712;2023-03-01T21:45:28;5.45;;;2.75;;
6452;SDS011;3259;51.080;13.712;2023-03-01T21:48:17;5.05;;;3.33;;
6452;SDS011;3259;51.080;13.712;2023-03-01T21:51:10;4.53;;;3.33;;
6452;SDS011;3259;51.080;13.712;2023-03-01T21:54:00;3.63;;;2.55;;
6452;SDS011;3259;51.080;13.712;2023-03-01T21:56:49;4.07;;;2.80;;
6452;SDS011;3259;51.080;13.712;2023-03-01T21:59:38;4.28;;;2.70;;
6452;SDS011;3259;51.080;13.712;2023-03-01T22:02:26;3.10;;;2.72;;
6452;SDS011;3259;51.080;13.712;2023-03-01T22:05:15;6.90;;;2.83;;
6452;SDS011;3259;51.080;13.712;2023-03-01T22:08:06;5.63;;;2.78;;
6452;SDS011;3259;51.080;13.712;2023-03-01T22:10:55;8.23;;;2.83;;
6452;SDS011;3259;51.080;13.712;2023-03-01T22:13:44;4.75;;;2.90;;
6452;SDS011;3259;51.080;13.712;2023-03-01T22:16:35;4.78;;;2.70;;
6452;SDS011;3259;51.080;13.712;2023-03-01T22:19:24;4.72;;;2.97;;
6452;SDS011;3259;51.080;13.712;2023-03-01T22:22:14;2.75;;;2.55;;
6452;SDS011;3259;51.080;13.712;2023-03-01T22:25:04;4.38;;;2.92;;
6452;SDS011;3259;51.080;13.712;2023-03-01T22:27:53;4.05;;;2.58;;
6452;SDS011;3259;51.080;13.712;2023-03-01T22:30:43;3.65;;;2.80;;
6452;SDS011;3259;51.080;13.712;2023-03-01T22:33:31;2.78;;;2.47;;
6452;SDS011;3259;51.080;13.712;2023-03-01T22:36:23;4.97;;;2.83;;
6452;SDS011;3259;51.080;13.712;2023-03-01T22:39:12;3.55;;;2.63;;
6452;SDS011;3259;51.080;13.712;2023-03-01T22:42:04;3.20;;;1.90;;
6452;SDS011;3259;51.080;13.712;2023-03-01T22:44:53;3.13;;;1.90;;
6452;SDS011;3259;51.080;13.712;2023-03-01T22:47:42;2.67;;;2.05;;
6452;SDS011;3259;51.080;13.712;2023-03-01T22:50:30;2.58;;;1.98;;
6452;SDS011;3259;51.080;13.712;2023-03-01T22:53:19;2.42;;;1.80;;
6452;SDS011;3259;51.080;13.712;2023-03-01T22:56:09;1.98;;;1.88;;
6452;SDS011;3259;51.080;13.712;2023-03-01T22:59:00;2.10;;;1.98;;
6452;SDS011;3259;51.080;13.712;2023-03-01T23:01:51;2.47;;;1.90;;
6452;SDS011;3259;51.080;13.712;2023-03-01T23:04:40;2.20;;;1.83;;
6452;SDS011;3259;51.080;13.712;2023-03-01T23:07:29;3.17;;;2.05;;
6452;SDS011;3259;51.080;13.712;2023-03-01T23:10:18;2.13;;;1.85;;
6452;SDS011;3259;51.080;13.712;2023-03-01T23:13:06;3.05;;;2.10;;
6452;SDS011;3259;51.080;13.712;2023-03-01T23:15:57;3.05;;;2.42;;
6452;SDS011;3259;51.080;13.712;2023-03-01T23:18:45;2.05;;;1.92;;
6452;SDS011;3259;51.080;13.712;2023-03-01T23:21:34;2.72;;;1.65;;
6452;SDS011;3259;51.080;13.712;2023-03-01T23:24:23;2.33;;;2.13;;
6452;SDS011;3259;51.080;13.712;2023-03-01T23:27:17;3.10;;;1.70;;
6452;SDS011;3259;51.080;13.712;2023-03-01T23:30:06;2.42;;;1.70;;
6452;SDS011;3259;51.080;13.712;2023-03-01T23:32:57;2.92;;;2.15;;
6452;SDS011;3259;51.080;13.712;2023-03-01T23:35:46;2.33;;;1.63;;
6452;SDS011;3259;51.080;13.712;2023-03-01T23:38:35;2.47;;;1.80;;
6452;SDS011;3259;51.080;13.712;2023-03-01T23:41:24;2.50;;;1.80;;
6452;SDS011;3259;51.080;13.712;2023-03-01T23:44:14;2.00;;;1.52;;
6452;SDS011;3259;51.080;13.712;2023-03-01T23:47:05;2.58;;;1.75;;
6452;SDS011;3259;51.080;13.712;2023-03-01T23:49:55;2.58;;;2.30;;
6452;SDS011;3259;51.080;13.712;2023-03-01T23:52:43;1.90;;;1.80;;
6452;SDS011;3259;51.080;13.712;2023-03-01T23:55:32;1.92;;;1.77;;
6452;SDS011;3259;51.080;13.712;2023-03-01T23:58:21;1.42;;;1.30;;
